createdAt,value
2022-11-03T00:01:39.904Z,89.35
2022-11-03T00:04:08.511Z,89.53
2022-11-03T00:06:35.753Z,89.53
2022-11-03T00:09:06.142Z,89.80
2022-11-03T00:11:37.566Z,90.01
2022-11-03T00:14:05.132Z,89.91
2022-11-03T00:16:32.293Z,89.95
2022-11-03T00:18:58.835Z,90.47
2022-11-03T00:21:25.510Z,90.36
2022-11-03T00:23:52.150Z,91.09
2022-11-03T00:26:25.986Z,90.99
2022-11-03T00:28:55.102Z,90.93
2022-11-03T00:31:30.158Z,91.47
2022-11-03T00:33:57.743Z,91.11
2022-11-03T00:36:29.838Z,91.80
2022-11-03T00:38:57.533Z,91.46
2022-11-03T00:41:25.784Z,91.54
2022-11-03T00:43:53.095Z,91.64
2022-11-03T00:46:21.802Z,92.29
2022-11-03T00:48:48.606Z,91.96
2022-11-03T00:51:17.880Z,91.70
2022-11-03T00:53:52.409Z,91.64
2022-11-03T00:56:22.173Z,92.20
2022-11-03T00:58:49.997Z,92.03
2022-11-03T01:01:19.668Z,91.53
2022-11-03T01:04:07.590Z,91.97
2022-11-03T01:06:51.655Z,91.72
2022-11-03T01:09:20.934Z,91.61
2022-11-03T01:11:57.754Z,91.70
2022-11-03T01:14:26.644Z,91.32
2022-11-03T01:16:53.192Z,91.37
2022-11-03T01:19:20.453Z,90.95
2022-11-03T01:21:46.980Z,90.92
2022-11-03T01:24:15.380Z,91.00
2022-11-03T01:26:42.081Z,91.25
2022-11-03T01:29:08.615Z,91.19
2022-11-03T01:31:35.170Z,90.87
2022-11-03T01:34:01.727Z,91.00
2022-11-03T01:36:28.383Z,91.21
2022-11-03T01:38:56.524Z,90.99
2022-11-03T01:41:27.050Z,91.06
2022-11-03T01:44:08.747Z,90.60
2022-11-03T01:46:48.834Z,90.75
2022-11-03T01:49:28.149Z,90.51
2022-11-03T01:52:06.059Z,90.27
2022-11-03T01:54:36.666Z,90.33
2022-11-03T01:57:10.769Z,90.62
2022-11-03T01:59:38.577Z,90.48
2022-11-03T02:02:05.377Z,90.24
2022-11-03T02:04:33.941Z,90.25
2022-11-03T02:07:26.365Z,90.22
2022-11-03T02:09:52.953Z,90.38
2022-11-03T02:12:22.019Z,90.52
2022-11-03T02:14:57.429Z,90.46
2022-11-03T02:17:27.610Z,90.11
2022-11-03T02:19:59.817Z,90.31
2022-11-03T02:22:51.803Z,90.63
2022-11-03T02:25:34.377Z,90.83
2022-11-03T02:28:02.655Z,90.45
2022-11-03T02:30:38.731Z,90.66
2022-11-03T02:33:20.463Z,90.98
2022-11-03T02:35:54.919Z,90.44
2022-11-03T02:38:24.147Z,90.51
2022-11-03T02:40:55.544Z,90.29
2022-11-03T02:43:25.365Z,90.61
2022-11-03T02:45:52.990Z,90.38
2022-11-03T02:48:19.603Z,90.65
2022-11-03T02:50:47.841Z,90.47
2022-11-03T02:53:15.920Z,90.36
2022-11-03T02:56:00.755Z,90.37
2022-11-03T02:58:37.395Z,90.40
2022-11-03T03:01:19.327Z,90.56
2022-11-03T03:03:50.064Z,90.73
2022-11-03T03:06:22.550Z,90.52
2022-11-03T03:08:55.484Z,90.67
2022-11-03T03:11:37.545Z,91.19
2022-11-03T03:14:18.670Z,90.97
2022-11-03T03:16:51.804Z,90.73
2022-11-03T03:19:23.741Z,91.20
2022-11-03T03:21:54.657Z,91.19
2022-11-03T03:24:46.317Z,91.47
2022-11-03T03:27:16.592Z,91.41
2022-11-03T03:29:49.276Z,91.52
2022-11-03T03:32:20.270Z,91.51
2022-11-03T03:34:49.691Z,91.72
2022-11-03T03:37:17.807Z,91.91
2022-11-03T03:39:50.943Z,91.67
2022-11-03T03:42:20.827Z,92.03
2022-11-03T03:44:48.475Z,92.21
2022-11-03T03:47:21.081Z,92.16
2022-11-03T03:49:47.692Z,92.59
2022-11-03T03:52:15.233Z,92.51
2022-11-03T03:54:41.767Z,92.75
2022-11-03T03:57:15.781Z,92.82
2022-11-03T03:59:45.363Z,92.64
2022-11-03T04:02:12.999Z,92.93
2022-11-03T04:04:39.910Z,92.70
2022-11-03T04:07:25.662Z,92.74
2022-11-03T04:09:52.244Z,92.81
2022-11-03T04:12:37.437Z,92.69
2022-11-03T04:15:23.129Z,92.84
2022-11-03T04:18:09.016Z,93.07
2022-11-03T04:20:54.553Z,93.21
2022-11-03T04:23:21.040Z,93.32
2022-11-03T04:25:53.316Z,93.17
2022-11-03T04:28:20.161Z,93.28
2022-11-03T04:30:47.183Z,93.60
2022-11-03T04:33:22.741Z,93.56
2022-11-03T04:35:49.917Z,93.52
2022-11-03T04:38:23.939Z,93.47
2022-11-03T04:40:55.337Z,93.95
2022-11-03T04:43:29.893Z,93.62
2022-11-03T04:45:56.443Z,93.84
2022-11-03T04:48:23.879Z,94.30
2022-11-03T04:50:54.041Z,94.21
2022-11-03T04:53:22.369Z,94.13
2022-11-03T04:55:53.103Z,94.23
2022-11-03T04:58:24.579Z,94.89
2022-11-03T05:00:54.132Z,95.25
2022-11-03T05:03:27.188Z,95.56
2022-11-03T05:05:53.822Z,95.62
2022-11-03T05:08:21.697Z,96.03
2022-11-03T05:10:49.700Z,95.79
2022-11-03T05:13:27.639Z,96.24
2022-11-03T05:16:05.352Z,96.19
2022-11-03T05:18:36.835Z,96.51
2022-11-03T05:21:07.463Z,96.59
2022-11-03T05:23:40.526Z,96.38
2022-11-03T05:26:14.088Z,96.41
2022-11-03T05:28:50.668Z,96.72
2022-11-03T05:31:24.005Z,96.92
2022-11-03T05:33:52.258Z,96.69
2022-11-03T05:36:24.711Z,97.18
2022-11-03T05:38:58.639Z,96.72
2022-11-03T05:41:29.615Z,97.28
2022-11-03T05:44:02.844Z,96.97
2022-11-03T05:46:32.271Z,97.06
2022-11-03T05:49:02.504Z,96.88
2022-11-03T05:51:33.701Z,96.91
2022-11-03T05:54:04.625Z,96.84
2022-11-03T05:56:33.170Z,97.06
2022-11-03T05:59:01.541Z,96.86
2022-11-03T06:01:34.680Z,96.76
2022-11-03T06:04:15.332Z,96.60
2022-11-03T06:06:42.258Z,96.52
2022-11-03T06:09:22.848Z,96.79
2022-11-03T06:11:52.954Z,96.45
2022-11-03T06:14:25.013Z,96.46
2022-11-03T06:17:05.903Z,96.44
2022-11-03T06:19:39.393Z,96.06
2022-11-03T06:22:36.561Z,96.11
2022-11-03T06:25:33.668Z,95.86
2022-11-03T06:28:03.081Z,96.01
2022-11-03T06:30:32.590Z,95.77
2022-11-03T06:33:10.627Z,95.69
2022-11-03T06:35:37.283Z,95.63
2022-11-03T06:38:12.269Z,95.34
2022-11-03T06:40:39.191Z,95.31
2022-11-03T06:43:14.918Z,95.47
2022-11-03T06:45:49.743Z,95.38
2022-11-03T06:48:21.833Z,95.40
2022-11-03T06:50:48.386Z,95.50
2022-11-03T06:53:21.928Z,95.00
2022-11-03T06:55:48.914Z,94.73
2022-11-03T06:58:28.128Z,94.05
2022-11-03T07:01:03.551Z,94.19
2022-11-03T07:03:33.309Z,93.78
2022-11-03T07:06:26.163Z,93.74
2022-11-03T07:08:58.883Z,93.71
2022-11-03T07:11:35.627Z,93.32
2022-11-03T07:14:15.279Z,93.54
2022-11-03T07:16:48.514Z,93.35
2022-11-03T07:19:41.381Z,93.38
2022-11-03T07:22:17.171Z,93.13
2022-11-03T07:24:46.760Z,92.67
2022-11-03T07:27:26.384Z,92.82
2022-11-03T07:29:58.611Z,92.58
2022-11-03T07:32:31.413Z,92.32
2022-11-03T07:35:05.783Z,92.36
2022-11-03T07:37:32.385Z,91.80
2022-11-03T07:39:59.037Z,92.14
2022-11-03T07:42:27.348Z,91.74
2022-11-03T07:44:59.518Z,91.68
2022-11-03T07:47:27.724Z,91.74
2022-11-03T07:49:55.872Z,91.21
2022-11-03T07:52:24.755Z,91.41
2022-11-03T07:54:54.916Z,91.06
2022-11-03T07:57:30.608Z,91.01
2022-11-03T08:00:03.878Z,90.72
2022-11-03T08:02:54.959Z,90.21
2022-11-03T08:05:22.238Z,90.10
2022-11-03T08:07:48.864Z,89.73
2022-11-03T08:10:15.649Z,89.97
2022-11-03T08:12:42.764Z,89.88
2022-11-03T08:15:10.016Z,89.23
2022-11-03T08:17:36.530Z,88.51
2022-11-03T08:20:03.087Z,88.68
2022-11-03T08:22:29.980Z,87.77
2022-11-03T08:24:56.499Z,87.09
2022-11-03T08:27:23.185Z,86.89
2022-11-03T08:29:49.729Z,87.15
2022-11-03T08:32:16.248Z,86.92
2022-11-03T08:34:42.749Z,86.46
2022-11-03T08:37:09.260Z,85.75
2022-11-03T08:39:36.232Z,85.86
2022-11-03T08:42:02.920Z,85.76
2022-11-03T08:44:29.502Z,85.96
2022-11-03T08:46:56.141Z,85.73
2022-11-03T08:49:22.720Z,85.77
2022-11-03T08:51:49.283Z,85.16
2022-11-03T08:54:15.881Z,84.97
2022-11-03T08:56:43.830Z,85.01
2022-11-03T08:59:10.306Z,85.00
2022-11-03T09:01:36.875Z,85.00
2022-11-03T09:04:03.763Z,85.30
2022-11-03T09:06:30.342Z,84.41
2022-11-03T09:11:43.356Z,84.66
2022-11-03T09:14:09.822Z,85.32
2022-11-03T09:16:36.388Z,85.46
2022-11-03T09:19:03.133Z,84.85
2022-11-03T09:21:29.663Z,85.22
2022-11-03T09:23:56.322Z,85.56
2022-11-03T09:26:22.878Z,84.90
2022-11-03T09:28:49.634Z,84.91
2022-11-03T09:31:16.774Z,84.72
2022-11-03T09:33:43.358Z,84.74
2022-11-03T09:36:09.985Z,84.64
2022-11-03T09:38:36.617Z,84.91
2022-11-03T09:41:13.516Z,84.52
2022-11-03T09:43:52.162Z,85.00
2022-11-03T09:46:19.331Z,84.61
2022-11-03T09:48:46.187Z,84.91
2022-11-03T09:51:18.694Z,84.94
2022-11-03T09:53:45.374Z,85.06
2022-11-03T09:56:12.059Z,84.71
2022-11-03T09:58:38.702Z,84.71
2022-11-03T10:01:06.061Z,84.49
2022-11-03T10:03:32.723Z,84.52
2022-11-03T10:05:59.483Z,84.62
2022-11-03T10:08:29.645Z,84.63
2022-11-03T10:10:57.196Z,84.70
2022-11-03T10:13:38.969Z,84.45
2022-11-03T10:16:08.999Z,84.30
2022-11-03T10:18:36.595Z,84.43
2022-11-03T10:21:14.460Z,84.13
2022-11-03T10:23:41.053Z,83.83
2022-11-03T10:26:14.007Z,84.40
2022-11-03T10:28:58.171Z,83.96
2022-11-03T10:31:40.760Z,83.95
2022-11-03T10:34:33.581Z,83.93
2022-11-03T10:37:25.243Z,83.54
2022-11-03T10:39:54.005Z,82.92
2022-11-03T10:42:34.995Z,83.17
2022-11-03T10:45:22.864Z,82.60
2022-11-03T10:48:04.984Z,82.02
2022-11-03T10:50:31.576Z,81.64
2022-11-03T10:52:58.356Z,80.76
2022-11-03T10:55:28.264Z,80.44
2022-11-03T10:57:58.137Z,80.28
2022-11-03T11:00:25.245Z,80.12
2022-11-03T11:02:58.653Z,79.39
2022-11-03T11:05:25.220Z,79.09
2022-11-03T11:07:54.994Z,78.90
2022-11-03T11:10:24.559Z,78.66
2022-11-03T11:13:17.890Z,76.94
2022-11-03T11:16:01.461Z,76.48
2022-11-03T11:18:30.820Z,76.31
2022-11-03T11:21:02.986Z,75.93
2022-11-03T11:23:29.445Z,75.53
2022-11-03T11:26:27.250Z,74.89
2022-11-03T11:29:09.359Z,74.09
2022-11-03T11:31:42.318Z,73.00
2022-11-03T11:34:09.457Z,72.46
2022-11-03T11:36:37.903Z,72.00
2022-11-03T11:39:28.104Z,72.17
2022-11-03T11:42:08.360Z,71.41
2022-11-03T11:44:43.973Z,71.56
2022-11-03T11:47:49.204Z,71.60
2022-11-03T11:50:25.723Z,71.40
2022-11-03T11:53:07.816Z,71.33
2022-11-03T11:55:42.915Z,71.05
2022-11-03T11:58:39.064Z,70.89
2022-11-03T12:01:21.938Z,70.64
2022-11-03T12:03:50.689Z,70.38
2022-11-03T12:06:17.390Z,70.94
2022-11-03T12:08:44.332Z,71.04
2022-11-03T12:11:14.288Z,70.45
2022-11-03T12:13:51.400Z,70.53
2022-11-03T12:16:38.142Z,70.50
2022-11-03T12:19:37.187Z,70.93
2022-11-03T12:22:11.907Z,70.98
2022-11-03T12:24:51.747Z,70.35
2022-11-03T12:27:24.026Z,70.66
2022-11-03T12:29:51.708Z,70.83
2022-11-03T12:32:33.038Z,70.40
2022-11-03T12:35:08.977Z,70.02
2022-11-03T12:37:36.248Z,70.13
2022-11-03T12:40:03.530Z,70.13
2022-11-03T12:42:33.134Z,70.13
2022-11-03T12:45:00.010Z,69.86
2022-11-03T12:47:26.939Z,69.89
2022-11-03T12:49:53.800Z,69.85
2022-11-03T12:52:20.443Z,69.89
2022-11-03T12:54:47.569Z,69.90
2022-11-03T12:57:14.736Z,70.33
2022-11-03T12:59:41.249Z,70.61
2022-11-03T13:02:10.544Z,70.31
2022-11-03T13:04:38.219Z,70.41
2022-11-03T13:07:05.627Z,70.89
2022-11-03T13:09:32.261Z,70.46
2022-11-03T13:12:20.342Z,70.54
2022-11-03T13:14:48.760Z,71.03
2022-11-03T13:17:15.900Z,70.56
2022-11-03T13:19:42.461Z,70.68
2022-11-03T13:22:09.294Z,70.51
2022-11-03T13:24:36.164Z,69.82
2022-11-03T13:27:04.936Z,70.54
2022-11-03T13:29:35.415Z,69.98
2022-11-03T13:32:03.869Z,70.37
2022-11-03T13:34:30.978Z,70.11
2022-11-03T13:36:58.672Z,69.97
2022-11-03T13:39:25.273Z,70.41
2022-11-03T13:41:52.347Z,70.52
2022-11-03T13:44:18.873Z,70.53
2022-11-03T13:46:45.400Z,70.28
2022-11-03T13:51:59.394Z,70.07
2022-11-03T14:00:03.646Z,69.92
2022-11-03T14:05:28.743Z,69.83
2022-11-03T14:07:55.362Z,70.38
2022-11-03T14:10:24.947Z,70.61
2022-11-03T14:12:51.776Z,70.19
2022-11-03T14:15:21.290Z,70.25
2022-11-03T14:17:48.130Z,70.56
2022-11-03T14:20:15.049Z,70.84
2022-11-03T14:22:42.102Z,71.00
2022-11-03T14:25:08.942Z,71.76
2022-11-03T14:27:35.608Z,71.46
2022-11-03T14:30:03.099Z,71.85
2022-11-03T14:32:29.892Z,71.90
2022-11-03T14:34:56.529Z,72.15
2022-11-03T14:37:25.322Z,72.85
2022-11-03T14:39:52.251Z,72.73
2022-11-03T14:42:18.999Z,72.40
2022-11-03T14:44:47.540Z,72.40
2022-11-03T14:47:19.416Z,72.86
2022-11-03T14:49:46.765Z,72.72
2022-11-03T14:52:14.012Z,72.94
2022-11-03T14:54:43.530Z,73.26
2022-11-03T14:57:10.558Z,73.40
2022-11-03T14:59:37.151Z,73.72
2022-11-03T15:02:05.834Z,73.52
2022-11-03T15:04:33.066Z,73.32
2022-11-03T15:07:02.814Z,73.72
2022-11-03T15:09:29.487Z,73.95
2022-11-03T15:11:56.476Z,73.74
2022-11-03T15:14:23.140Z,74.00
2022-11-03T15:16:52.723Z,74.18
2022-11-03T15:19:19.456Z,74.28
2022-11-03T15:21:46.194Z,74.63
2022-11-03T15:26:59.304Z,75.35
2022-11-03T15:29:25.888Z,75.41
2022-11-03T15:31:52.477Z,75.90
2022-11-03T15:34:19.299Z,76.61
2022-11-03T15:36:45.933Z,76.46
2022-11-03T15:39:13.321Z,76.71
2022-11-03T15:41:40.320Z,77.11
2022-11-03T15:44:07.135Z,77.38
2022-11-03T15:46:33.773Z,77.55
2022-11-03T15:49:01.976Z,78.08
2022-11-03T15:51:28.986Z,78.09
2022-11-03T15:53:58.788Z,78.13
2022-11-03T15:56:26.770Z,78.16
2022-11-03T15:58:53.375Z,78.17
2022-11-03T16:01:20.446Z,78.43
2022-11-03T16:03:47.199Z,78.68
2022-11-03T16:06:13.807Z,78.48
2022-11-03T16:08:40.426Z,78.96
2022-11-03T16:11:06.906Z,78.79
2022-11-03T16:13:33.477Z,78.81
2022-11-03T16:16:00.149Z,78.65
2022-11-03T16:18:26.683Z,78.46
2022-11-03T16:20:53.220Z,78.61
2022-11-03T16:23:20.214Z,78.41
2022-11-03T16:25:46.846Z,78.35
2022-11-03T16:28:13.612Z,78.63
2022-11-03T16:30:40.168Z,78.36
2022-11-03T16:33:07.589Z,78.36
2022-11-03T16:35:34.167Z,78.63
2022-11-03T16:38:00.893Z,78.43
2022-11-03T16:40:28.099Z,78.58
2022-11-03T16:42:55.054Z,78.59
2022-11-03T16:45:23.779Z,78.82
2022-11-03T16:47:50.785Z,77.95
2022-11-03T16:50:18.767Z,78.17
2022-11-03T16:52:46.751Z,77.66
2022-11-03T16:55:14.900Z,77.22
2022-11-03T16:57:42.335Z,77.00
2022-11-03T17:00:19.143Z,76.88
2022-11-03T17:02:46.842Z,76.46
2022-11-03T17:05:15.615Z,76.00
2022-11-03T17:07:42.264Z,75.87
2022-11-03T17:10:09.858Z,75.60
2022-11-03T17:12:36.687Z,74.91
2022-11-03T17:15:04.184Z,74.67
2022-11-03T17:17:30.942Z,74.55
2022-11-03T17:19:57.869Z,74.81
2022-11-03T17:22:24.822Z,74.55
2022-11-03T17:24:51.620Z,74.10
2022-11-03T17:27:29.222Z,74.22
2022-11-03T17:29:59.203Z,74.25
2022-11-03T17:32:34.524Z,74.19
2022-11-03T17:35:01.295Z,74.38
2022-11-03T17:37:28.365Z,74.60
2022-11-03T17:39:56.905Z,74.74
2022-11-03T17:42:25.563Z,74.98
2022-11-03T17:44:55.654Z,75.17
2022-11-03T17:47:24.223Z,75.05
2022-11-03T17:49:51.318Z,75.24
2022-11-03T17:52:27.728Z,75.04
2022-11-03T17:54:57.016Z,75.40
2022-11-03T17:57:24.088Z,75.71
2022-11-03T17:59:53.303Z,75.71
2022-11-03T18:02:23.293Z,75.83
2022-11-03T18:04:51.196Z,75.65
2022-11-03T18:07:21.385Z,75.81
2022-11-03T18:09:48.247Z,75.88
2022-11-03T18:12:35.507Z,76.01
2022-11-03T18:15:04.425Z,76.19
2022-11-03T18:17:31.176Z,76.11
2022-11-03T18:19:57.762Z,76.42
2022-11-03T18:22:24.343Z,76.46
2022-11-03T18:24:52.396Z,76.50
2022-11-03T18:27:24.147Z,76.34
2022-11-03T18:29:52.016Z,76.57
2022-11-03T18:32:19.522Z,76.74
2022-11-03T18:34:46.510Z,77.07
2022-11-03T18:37:13.062Z,76.71
2022-11-03T18:39:39.928Z,76.68
2022-11-03T18:42:14.224Z,76.93
2022-11-03T18:44:44.357Z,77.25
2022-11-03T18:47:11.200Z,77.18
2022-11-03T18:49:38.723Z,77.32
2022-11-03T18:52:13.930Z,77.56
2022-11-03T18:54:45.884Z,77.53
2022-11-03T18:57:13.260Z,77.89
2022-11-03T18:59:44.541Z,77.82
2022-11-03T19:02:18.522Z,77.74
2022-11-03T19:04:45.998Z,77.78
2022-11-03T19:07:16.060Z,77.90
2022-11-03T19:09:43.973Z,77.68
2022-11-03T19:12:14.334Z,77.75
2022-11-03T19:14:44.843Z,77.75
2022-11-03T19:17:24.048Z,77.89
2022-11-03T19:19:52.539Z,77.89
2022-11-03T19:22:21.305Z,77.91
2022-11-03T19:24:48.060Z,77.80
2022-11-03T19:27:25.552Z,78.22
2022-11-03T19:29:52.499Z,78.13
2022-11-03T19:32:31.565Z,78.02
2022-11-03T19:35:17.001Z,78.57
2022-11-03T19:37:43.852Z,78.58
2022-11-03T19:40:19.948Z,78.64
2022-11-03T19:42:48.541Z,78.98
2022-11-03T19:45:17.656Z,78.88
2022-11-03T19:48:10.561Z,79.32
2022-11-03T19:50:36.412Z,79.45
2022-11-03T19:53:05.527Z,79.72
2022-11-03T19:55:36.196Z,79.94
2022-11-03T19:58:13.174Z,79.85
2022-11-03T20:00:39.949Z,80.11
2022-11-03T20:03:06.595Z,80.41
2022-11-03T20:05:33.355Z,80.31
2022-11-03T20:08:02.364Z,80.38
2022-11-03T20:10:31.739Z,80.36
2022-11-03T20:13:02.988Z,80.42
2022-11-03T20:15:29.487Z,80.85
2022-11-03T20:17:55.977Z,80.72
2022-11-03T20:20:26.587Z,80.73
2022-11-03T20:22:57.894Z,80.58
2022-11-03T20:25:27.803Z,80.63
2022-11-03T20:27:56.343Z,80.25
2022-11-03T20:30:24.550Z,80.44
2022-11-03T20:32:51.745Z,80.28
2022-11-03T20:35:24.026Z,80.39
2022-11-03T20:37:53.793Z,80.40
2022-11-03T20:40:22.570Z,80.46
2022-11-03T20:42:51.794Z,80.24
2022-11-03T20:45:20.551Z,79.96
2022-11-03T20:47:49.113Z,80.12
2022-11-03T20:50:19.355Z,80.38
2022-11-03T20:52:47.209Z,80.37
2022-11-03T20:55:25.323Z,80.27
2022-11-03T20:57:53.695Z,80.24
2022-11-03T21:00:26.996Z,80.41
2022-11-03T21:02:55.345Z,80.27
2022-11-03T21:05:25.001Z,80.16
2022-11-03T21:07:53.092Z,80.55
2022-11-03T21:10:21.096Z,80.12
2022-11-03T21:12:48.617Z,80.64
2022-11-03T21:15:52.318Z,81.04
2022-11-03T21:18:46.179Z,81.70
2022-11-03T21:21:18.130Z,81.44
2022-11-03T21:23:47.424Z,81.78
2022-11-03T21:26:14.177Z,81.71
2022-11-03T21:28:40.709Z,81.84
2022-11-03T21:31:12.691Z,82.30
2022-11-03T21:33:39.301Z,82.25
2022-11-03T21:36:06.364Z,82.30
2022-11-03T21:38:33.183Z,82.35
2022-11-03T21:41:19.637Z,82.52
2022-11-03T21:44:04.816Z,82.76
2022-11-03T21:46:31.268Z,82.86
2022-11-03T21:49:16.569Z,83.20
2022-11-03T21:51:43.141Z,83.43
2022-11-03T21:54:12.579Z,84.11
2022-11-03T21:56:39.081Z,84.33
2022-11-03T21:59:05.617Z,84.83
2022-11-03T22:01:32.424Z,85.45
2022-11-03T22:04:00.005Z,85.52
2022-11-03T22:06:27.142Z,85.94
2022-11-03T22:08:53.691Z,86.02
2022-11-03T22:11:23.223Z,86.12
2022-11-03T22:13:54.069Z,86.19
2022-11-03T22:16:42.436Z,86.38
2022-11-03T22:19:38.920Z,87.06
2022-11-03T22:22:29.375Z,87.62
2022-11-03T22:25:14.687Z,87.87
2022-11-03T22:27:41.719Z,87.49
2022-11-03T22:30:28.086Z,87.50
2022-11-03T22:32:56.479Z,87.83
2022-11-03T22:35:43.633Z,87.84
2022-11-03T22:38:18.148Z,87.93
2022-11-03T22:41:06.244Z,88.32
2022-11-03T22:43:51.593Z,88.26
2022-11-03T22:46:18.127Z,88.24
2022-11-03T22:48:44.804Z,88.16
2022-11-03T22:51:14.543Z,88.41
2022-11-03T22:54:00.776Z,88.13
2022-11-03T22:56:29.331Z,88.61
2022-11-03T22:58:56.546Z,88.57
2022-11-03T23:01:26.662Z,88.80
2022-11-03T23:03:53.948Z,88.70
2022-11-03T23:06:22.987Z,88.55
2022-11-03T23:08:50.891Z,88.99
2022-11-03T23:11:22.955Z,89.02
2022-11-03T23:13:54.893Z,88.65
2022-11-03T23:16:26.464Z,88.94
2022-11-03T23:19:11.524Z,88.87
2022-11-03T23:21:38.564Z,89.14
2022-11-03T23:24:24.176Z,88.94
2022-11-03T23:26:50.871Z,89.40
2022-11-03T23:29:17.552Z,89.35
2022-11-03T23:31:45.241Z,89.62
2022-11-03T23:34:13.388Z,89.30
2022-11-03T23:36:40.468Z,89.52
2022-11-03T23:39:07.583Z,89.47
2022-11-03T23:41:34.237Z,89.85
2022-11-03T23:44:00.810Z,89.84
2022-11-03T23:46:47.450Z,89.84
2022-11-03T23:49:14.616Z,89.68
2022-11-03T23:51:44.463Z,89.67
2022-11-03T23:54:11.907Z,89.47
2022-11-03T23:57:02.075Z,89.81
2022-11-03T23:59:30.205Z,89.51
